Time;durP1;ratioP1;P1;durP2;ratioP2;P2;SDS_P1;SDS_P2;PMS_P1;PMS_P2;Temp;Humidity;BMP_temperature;BMP_pressure;BME280_temperature;BME280_humidity;BME280_pressure;Samples;Min_cycle;Max_cycle;Signal;HPM_P1;HPM_P2
2022/10/04 00:01:50;;;;;;;14.63;11.18;;;13.70;99.90;;;;;;5054715;28;20056;-71
2022/10/04 00:04:41;;;;;;;14.40;9.85;;;13.80;99.90;;;;;;5054301;28;20052;-71
2022/10/04 00:07:11;;;;;;;12.23;8.65;;;13.80;99.90;;;;;;5037734;28;20057;-71
2022/10/04 00:09:47;;;;;;;12.45;9.85;;;13.90;99.90;;;;;;5055138;28;20045;-71
2022/10/04 00:12:36;;;;;;;11.80;9.60;;;13.90;99.90;;;;;;5055258;28;20472;-71
2022/10/04 00:15:27;;;;;;;11.77;9.63;;;14.00;99.90;;;;;;5054316;28;20049;-71
2022/10/04 00:18:09;;;;;;;14.38;10.38;;;14.00;99.90;;;;;;5053971;28;20091;-72
2022/10/04 00:20:46;;;;;;;10.68;9.13;;;14.10;99.90;;;;;;5056194;28;20075;-71
2022/10/04 00:23:22;;;;;;;12.75;9.30;;;14.10;99.90;;;;;;5054860;28;20131;-71
2022/10/04 00:25:52;;;;;;;13.20;9.27;;;14.20;99.90;;;;;;5055320;28;20115;-71
2022/10/04 00:28:19;;;;;;;13.82;9.30;;;14.20;99.90;;;;;;5038065;28;20106;-71
2022/10/04 00:31:14;;;;;;;12.40;9.95;;;14.30;99.90;;;;;;5053601;28;20044;-71
2022/10/04 00:33:52;;;;;;;11.07;8.73;;;14.30;99.90;;;;;;5055876;28;20056;-71
2022/10/04 00:36:25;;;;;;;13.77;9.30;;;14.30;99.90;;;;;;5054920;28;20475;-71
2022/10/04 00:39:25;;;;;;;10.98;8.60;;;14.30;99.90;;;;;;5053646;28;20091;-71
2022/10/04 00:42:05;;;;;;;11.82;8.80;;;14.40;99.90;;;;;;5047132;28;20098;-71
2022/10/04 00:44:42;;;;;;;9.85;8.13;;;14.40;99.90;;;;;;5055744;28;20111;-71
2022/10/04 00:47:45;;;;;;;11.70;7.65;;;14.40;99.90;;;;;;5053962;28;20148;-72
2022/10/04 00:50:16;;;;;;;10.85;7.57;;;14.50;99.90;;;;;;5039220;28;20045;-71
2022/10/04 00:52:46;;;;;;;14.52;9.00;;;14.50;99.90;;;;;;5053494;28;20053;-71
2022/10/04 00:55:24;;;;;;;11.95;7.75;;;14.50;99.90;;;;;;5053933;28;20456;-71
2022/10/04 00:57:54;;;;;;;9.52;7.28;;;14.60;99.90;;;;;;5054289;28;20350;-71
2022/10/04 01:00:21;;;;;;;7.60;6.30;;;14.60;99.90;;;;;;5053875;28;20049;-71
2022/10/04 01:02:59;;;;;;;10.63;6.68;;;14.60;99.90;;;;;;5036820;28;20044;-71
2022/10/04 01:05:32;;;;;;;11.40;5.93;;;14.60;99.90;;;;;;5054420;28;20045;-71
2022/10/04 01:08:09;;;;;;;9.40;5.70;;;14.70;99.90;;;;;;5037342;28;20045;-71
2022/10/04 01:10:39;;;;;;;7.00;5.90;;;14.70;99.90;;;;;;5037639;28;20167;-71
2022/10/04 01:13:39;;;;;;;7.03;5.50;;;14.70;99.90;;;;;;5054429;28;20049;-71
2022/10/04 01:16:13;;;;;;;9.68;6.32;;;14.70;99.90;;;;;;5049028;28;20473;-71
2022/10/04 01:18:40;;;;;;;8.48;6.22;;;14.80;99.90;;;;;;5052906;28;20036;-72
2022/10/04 01:21:19;;;;;;;6.65;5.70;;;14.80;99.90;;;;;;5052761;28;20067;-71
2022/10/04 01:23:58;;;;;;;8.85;5.53;;;14.80;99.90;;;;;;5052896;28;20048;-71
2022/10/04 01:26:28;;;;;;;6.97;5.47;;;14.80;99.90;;;;;;5054295;28;20469;-71
2022/10/04 01:29:17;;;;;;;9.18;5.45;;;14.90;99.90;;;;;;5053814;28;20041;-71
2022/10/04 01:31:48;;;;;;;;;;;14.90;99.90;;;;;;5053265;28;20073;-71
2022/10/04 01:34:19;;;;;;;9.73;5.70;;;14.90;99.90;;;;;;5087114;28;20025;-71
2022/10/04 01:36:47;;;;;;;16.33;5.63;;;14.90;99.90;;;;;;5053271;28;20099;-71
2022/10/04 01:39:15;;;;;;;8.07;5.15;;;14.90;99.90;;;;;;5052698;28;20041;-73
2022/10/04 01:42:17;;;;;;;12.88;7.15;;;15.00;99.90;;;;;;5052356;28;20477;-72
2022/10/04 01:44:56;;;;;;;11.77;6.13;;;15.00;99.90;;;;;;5036222;28;20044;-72
2022/10/04 01:47:25;;;;;;;;;;;15.00;99.90;;;;;;5052675;28;20526;-71
2022/10/04 01:49:52;;;;;;;7.40;5.03;;;15.00;99.90;;;;;;5085440;28;19971;-71
2022/10/04 01:52:34;;;;;;;8.45;5.75;;;15.00;99.90;;;;;;5052028;28;20481;-72
2022/10/04 01:55:04;;;;;;;7.80;5.53;;;15.00;99.90;;;;;;5052154;28;20087;-71
2022/10/04 01:57:36;;;;;;;9.18;5.70;;;15.00;99.90;;;;;;5052947;28;20428;-71
2022/10/04 02:00:11;;;;;;;6.95;5.07;;;15.10;99.90;;;;;;5052395;28;20048;-71
2022/10/04 02:02:48;;;;;;;8.48;5.47;;;15.10;99.90;;;;;;5035890;28;20491;-71
2022/10/04 02:05:17;;;;;;;8.45;5.53;;;15.10;99.90;;;;;;5052975;28;20068;-71
2022/10/04 02:07:44;;;;;;;11.48;5.22;;;15.10;99.90;;;;;;5052011;28;20508;-71
2022/10/04 02:10:14;;;;;;;11.23;5.32;;;15.10;99.90;;;;;;5036088;28;20049;-71
2022/10/04 02:12:44;;;;;;;10.82;5.18;;;15.20;99.90;;;;;;5052397;28;20457;-72
2022/10/04 02:15:12;;;;;;;4.45;3.72;;;15.20;99.90;;;;;;5052878;28;20110;-71
2022/10/04 02:17:41;;;;;;;7.53;4.50;;;15.20;99.90;;;;;;5035674;28;20048;-71
2022/10/04 02:20:16;;;;;;;7.72;4.35;;;15.20;99.90;;;;;;5051818;28;20493;-71
2022/10/04 02:22:45;;;;;;;7.35;4.32;;;15.30;99.90;;;;;;5052800;28;20130;-71
2022/10/04 02:25:12;;;;;;;7.82;3.88;;;15.20;99.90;;;;;;5053762;28;20049;-71
2022/10/04 02:27:39;;;;;;;13.40;5.05;;;15.30;99.90;;;;;;5052001;28;20396;-71
2022/10/04 02:30:08;;;;;;;6.75;4.85;;;15.20;99.90;;;;;;5051597;28;20049;-71
2022/10/04 02:35:21;;;;;;;7.72;3.92;;;15.30;99.90;;;;;;5052821;28;20098;-71
2022/10/04 02:37:51;;;;;;;6.72;4.65;;;15.30;99.90;;;;;;5053155;28;20041;-71
2022/10/04 02:40:18;;;;;;;;;;;15.30;99.90;;;;;;5035593;28;20041;-71
2022/10/04 02:43:11;;;;;;;9.23;4.35;;;15.30;99.90;;;;;;5084849;28;20325;-72
2022/10/04 02:45:48;;;;;;;8.80;4.43;;;15.30;99.90;;;;;;5052596;28;20045;-71
2022/10/04 02:48:39;;;;;;;8.40;4.05;;;15.30;99.90;;;;;;5051657;28;20041;-71
2022/10/04 02:51:33;;;;;;;9.95;4.32;;;15.30;99.90;;;;;;5036183;28;20041;-71
2022/10/04 02:54:09;;;;;;;9.43;4.50;;;15.30;99.90;;;;;;5051550;28;20118;-71
2022/10/04 02:56:36;;;;;;;6.90;3.47;;;15.30;99.90;;;;;;5052549;28;20114;-72
2022/10/04 02:59:04;;;;;;;6.57;4.63;;;15.30;99.90;;;;;;5051403;28;20481;-71
2022/10/04 03:01:47;;;;;;;6.35;4.80;;;15.30;99.90;;;;;;5052165;28;20045;-71
2022/10/04 03:04:13;;;;;;;5.57;4.32;;;15.30;99.90;;;;;;5052311;28;20041;-72
2022/10/04 03:06:41;;;;;;;9.32;4.18;;;15.30;99.90;;;;;;5052725;28;20048;-71
2022/10/04 03:09:08;;;;;;;8.98;4.28;;;15.30;99.90;;;;;;5035373;28;20107;-71
2022/10/04 03:11:37;;;;;;;10.25;4.70;;;15.30;99.90;;;;;;5055311;28;20068;-71
2022/10/04 03:14:07;;;;;;;6.68;4.03;;;15.30;99.90;;;;;;5055589;28;20045;-71
2022/10/04 03:16:36;;;;;;;7.90;4.25;;;15.30;99.90;;;;;;5055198;28;20087;-71
2022/10/04 03:19:03;;;;;;;8.10;3.87;;;15.30;99.90;;;;;;5056322;28;20041;-71
2022/10/04 03:21:30;;;;;;;9.77;4.47;;;15.30;99.90;;;;;;5056245;28;20422;-72
2022/10/04 03:23:59;;;;;;;7.43;4.18;;;15.30;99.90;;;;;;5056987;28;20071;-71
2022/10/04 03:26:48;;;;;;;9.98;5.43;;;15.20;99.90;;;;;;5039676;28;20126;-71
2022/10/04 03:29:15;;;;;;;8.05;4.68;;;15.20;99.90;;;;;;5055992;28;20094;-71
2022/10/04 03:31:47;;;;;;;10.55;5.00;;;15.20;99.90;;;;;;5038667;28;20090;-71
2022/10/04 03:34:36;;;;;;;8.00;4.60;;;15.20;99.90;;;;;;5054857;28;20040;-71
2022/10/04 03:37:06;;;;;;;9.25;4.32;;;15.20;99.90;;;;;;5055642;28;20071;-71
2022/10/04 03:39:44;;;;;;;9.63;4.80;;;15.20;99.90;;;;;;5054651;28;20048;-71
2022/10/04 03:42:15;;;;;;;7.40;4.57;;;15.20;99.90;;;;;;5055355;28;20103;-71
2022/10/04 03:44:43;;;;;;;7.93;4.28;;;15.20;99.90;;;;;;5054849;28;20128;-71
2022/10/04 03:47:12;;;;;;;18.13;4.93;;;15.20;99.90;;;;;;5039151;28;20049;-71
2022/10/04 03:49:39;;;;;;;7.75;4.53;;;15.20;99.90;;;;;;5054897;28;20143;-71
2022/10/04 03:52:06;;;;;;;11.60;5.50;;;15.20;99.90;;;;;;5054104;28;20049;-71
2022/10/04 03:54:33;;;;;;;9.85;4.88;;;15.30;99.90;;;;;;5055525;28;20037;-71
2022/10/04 03:57:00;;;;;;;5.90;4.10;;;15.20;99.90;;;;;;5054627;28;20087;-71
2022/10/04 03:59:27;;;;;;;6.65;4.45;;;15.20;99.90;;;;;;5054703;28;20073;-71
2022/10/04 04:02:28;;;;;;;6.95;3.97;;;15.20;99.90;;;;;;5038138;28;20073;-71
2022/10/04 04:05:19;;;;;;;12.70;4.53;;;15.30;99.90;;;;;;5055629;28;20063;-71
2022/10/04 04:07:53;;;;;;;6.25;3.72;;;15.30;99.90;;;;;;5055731;28;20048;-71
2022/10/04 04:10:25;;;;;;;6.97;3.70;;;15.30;99.90;;;;;;5054056;28;20079;-71
2022/10/04 04:13:33;;;;;;;6.47;3.42;;;15.40;99.90;;;;;;5054017;28;20063;-71
2022/10/04 04:16:00;;;;;;;4.90;3.55;;;15.40;99.90;;;;;;5056071;28;20094;-71
2022/10/04 04:18:34;;;;;;;8.20;3.85;;;15.40;99.90;;;;;;5037775;28;20040;-71
2022/10/04 04:21:02;;;;;;;6.43;3.45;;;15.40;99.90;;;;;;5054328;28;20095;-71
2022/10/04 04:23:36;;;;;;;10.68;3.72;;;15.40;99.90;;;;;;5037144;28;20528;-71
2022/10/04 04:26:35;;;;;;;6.90;3.70;;;15.40;99.90;;;;;;5054206;28;20103;-71
2022/10/04 04:29:24;;;;;;;8.63;3.72;;;15.50;99.90;;;;;;5053825;28;20076;-71
2022/10/04 04:31:58;;;;;;;5.82;3.53;;;15.50;99.90;;;;;;5054870;28;20090;-71
2022/10/04 04:34:28;;;;;;;8.25;3.53;;;15.50;99.90;;;;;;5055848;28;20083;-71
2022/10/04 04:36:59;;;;;;;6.03;4.30;;;15.50;99.90;;;;;;5053701;28;20136;-71
2022/10/04 04:39:33;;;;;;;9.18;4.00;;;15.50;99.90;;;;;;5054373;28;20087;-71
2022/10/04 04:42:15;;;;;;;5.68;3.50;;;15.50;99.90;;;;;;5055847;28;20048;-71
2022/10/04 04:44:52;;;;;;;9.85;3.88;;;15.50;99.90;;;;;;5054344;28;20111;-71
2022/10/04 04:47:26;;;;;;;6.20;4.05;;;15.50;99.90;;;;;;5037869;28;20126;-71
2022/10/04 04:49:55;;;;;;;7.90;3.72;;;15.50;99.90;;;;;;5054633;28;20044;-71
2022/10/04 04:52:25;;;;;;;5.47;4.10;;;15.50;99.90;;;;;;5053386;28;20079;-72
2022/10/04 04:54:52;;;;;;;7.38;4.25;;;15.50;99.90;;;;;;5053412;28;20080;-71
2022/10/04 04:57:19;;;;;;;7.45;4.05;;;15.50;99.90;;;;;;5053476;28;20049;-71
2022/10/04 04:59:48;;;;;;;7.90;3.47;;;15.50;99.90;;;;;;5053517;28;20417;-71
2022/10/04 05:02:27;;;;;;;5.43;3.85;;;15.50;99.90;;;;;;5053094;28;20037;-71
2022/10/04 05:05:19;;;;;;;7.35;3.47;;;15.50;99.90;;;;;;5054879;28;20063;-71
2022/10/04 05:07:46;;;;;;;6.47;3.22;;;15.50;99.90;;;;;;5054256;28;20099;-71
2022/10/04 05:10:32;;;;;;;7.32;3.03;;;15.50;99.90;;;;;;5053229;28;20074;-71
2022/10/04 05:12:59;;;;;;;6.32;3.88;;;15.50;99.90;;;;;;5053818;28;20671;-72
2022/10/04 05:15:30;;;;;;;8.70;3.60;;;15.50;99.90;;;;;;5053664;28;20087;-71
2022/10/04 05:17:58;;;;;;;8.27;3.97;;;15.50;99.90;;;;;;5053195;28;20052;-71
2022/10/04 05:20:25;;;;;;;5.25;3.65;;;15.60;99.90;;;;;;5052611;28;20071;-71
2022/10/04 05:22:52;;;;;;;7.63;4.43;;;15.60;99.90;;;;;;5052681;28;20044;-71
2022/10/04 05:25:31;;;;;;;7.43;3.95;;;15.60;99.90;;;;;;5052618;28;20048;-71
2022/10/04 05:27:58;;;;;;;8.98;3.70;;;15.60;99.90;;;;;;5052912;28;20091;-71
2022/10/04 05:30:56;;;;;;;9.73;3.83;;;15.50;99.90;;;;;;5052513;28;20447;-71
2022/10/04 05:33:39;;;;;;;7.70;3.70;;;15.60;99.90;;;;;;5054351;28;20049;-71
2022/10/04 05:36:37;;;;;;;7.50;3.85;;;15.50;99.90;;;;;;5037220;28;20420;-71
2022/10/04 05:39:31;;;;;;;6.35;2.85;;;15.50;99.90;;;;;;5052949;28;20130;-71
2022/10/04 05:42:23;;;;;;;4.68;3.13;;;15.50;99.90;;;;;;5052748;28;20067;-71
2022/10/04 05:44:54;;;;;;;10.43;4.05;;;15.50;99.90;;;;;;5036525;28;20079;-71
2022/10/04 05:47:26;;;;;;;4.82;2.78;;;15.50;99.90;;;;;;5053424;28;20106;-71
2022/10/04 05:49:54;;;;;;;16.10;12.48;;;15.50;99.90;;;;;;5052169;28;20048;-68
2022/10/04 05:52:29;;;;;;;13.27;10.35;;;15.50;99.90;;;;;;5069563;28;20110;-68
2022/10/04 05:55:11;;;;;;;5.45;3.10;;;15.50;99.90;;;;;;5054105;28;20057;-68
2022/10/04 05:57:56;;;;;;;4.72;2.60;;;15.40;99.90;;;;;;5053254;28;20040;-68
2022/10/04 06:00:36;;;;;;;4.47;2.63;;;15.40;99.90;;;;;;5053043;28;20377;-68
2022/10/04 06:03:24;;;;;;;5.68;2.65;;;15.40;99.90;;;;;;5052692;28;20457;-68
2022/10/04 06:05:56;;;;;;;7.27;3.17;;;15.40;99.90;;;;;;5052112;28;20087;-68
2022/10/04 06:08:44;;;;;;;4.43;2.65;;;15.40;99.90;;;;;;5051832;28;20083;-68
2022/10/04 06:11:49;;;;;;;7.00;2.80;;;15.40;99.90;;;;;;5052905;28;20041;-68
2022/10/04 06:14:19;;;;;;;3.75;2.40;;;15.40;99.90;;;;;;5047530;28;20094;-70
2022/10/04 06:16:58;;;;;;;13.77;9.07;;;15.40;99.90;;;;;;5052874;28;20330;-68
2022/10/04 06:19:51;;;;;;;41.20;33.33;;;15.40;99.90;;;;;;5053315;28;20133;-68
2022/10/04 06:22:18;;;;;;;11.63;10.07;;;15.40;99.90;;;;;;5070018;28;20052;-67
2022/10/04 06:24:49;;;;;;;9.07;6.65;;;15.40;99.90;;;;;;5051737;28;20045;-67
2022/10/04 06:27:22;;;;;;;4.43;2.75;;;15.40;99.90;;;;;;5035704;28;20107;-68
2022/10/04 06:29:53;;;;;;;6.47;2.67;;;15.40;99.90;;;;;;5053676;28;20354;-67
2022/10/04 06:32:23;;;;;;;7.40;2.97;;;15.40;99.90;;;;;;5051963;28;20099;-68
2022/10/04 06:34:50;;;;;;;5.25;2.80;;;15.40;99.90;;;;;;5051975;28;20056;-68
2022/10/04 06:37:50;;;;;;;15.02;11.70;;;15.50;99.90;;;;;;5053482;28;20045;-71
2022/10/04 06:40:21;;;;;;;9.57;6.35;;;15.50;99.90;;;;;;5037807;28;20049;-68
2022/10/04 06:43:18;;;;;;;3.72;2.40;;;15.50;99.90;;;;;;5035109;28;20045;-66
2022/10/04 06:46:01;;;;;;;155.02;138.50;;;15.60;99.90;;;;;;5054703;28;20473;-67
2022/10/04 06:48:50;;;;;;;17.88;10.85;;;15.60;99.90;;;;;;5057116;28;20036;-67
2022/10/04 06:51:22;;;;;;;6.07;4.23;;;15.60;99.90;;;;;;5055941;28;20053;-67
2022/10/04 06:54:14;;;;;;;5.95;3.42;;;15.60;99.90;;;;;;5039450;28;20057;-68
2022/10/04 06:56:54;;;;;;;6.53;2.65;;;15.70;99.90;;;;;;5056490;28;20453;-68
2022/10/04 06:59:44;;;;;;;5.50;1.92;;;15.70;99.90;;;;;;5055980;28;20048;-67
2022/10/04 07:02:12;;;;;;;;;;;15.70;99.90;;;;;;5056681;28;20045;-65
2022/10/04 07:04:53;;;;;;;5.47;2.35;;;15.70;99.90;;;;;;5089319;28;19947;-69
2022/10/04 07:07:37;;;;;;;4.30;1.95;;;15.70;99.90;;;;;;5041570;28;20124;-64
2022/10/04 07:10:14;;;;;;;3.60;2.30;;;15.80;99.90;;;;;;5055311;28;20049;-64
2022/10/04 07:12:43;;;;;;;5.78;1.90;;;15.80;99.90;;;;;;5056867;28;20094;-64
2022/10/04 07:15:41;;;;;;;5.95;2.25;;;15.80;99.90;;;;;;5056127;28;20099;-65
2022/10/04 07:18:10;;;;;;;5.15;1.90;;;15.80;99.90;;;;;;5040460;28;20041;-64
2022/10/04 07:20:37;;;;;;;4.70;1.75;;;15.80;99.90;;;;;;5055643;28;20045;-65
2022/10/04 07:23:07;;;;;;;6.18;2.28;;;15.80;99.90;;;;;;5038949;28;20048;-65
2022/10/04 07:25:45;;;;;;;5.85;2.50;;;15.90;99.90;;;;;;5055456;28;20045;-65
2022/10/04 07:31:05;;;;;;;5.65;2.22;;;15.90;99.90;;;;;;5055677;28;20266;-66
2022/10/04 07:33:40;;;;;;;5.38;2.13;;;15.90;99.90;;;;;;5055095;28;20132;-65
2022/10/04 07:36:11;;;;;;;7.15;2.13;;;16.00;99.90;;;;;;5055226;28;20432;-64
2022/10/04 07:38:45;;;;;;;4.75;1.80;;;16.00;99.90;;;;;;5055318;28;20103;-63
2022/10/04 07:41:27;;;;;;;9.70;6.72;;;15.90;99.90;;;;;;5056173;28;20090;-64
2022/10/04 07:43:58;;;;;;;7.15;4.03;;;16.00;99.90;;;;;;5054898;28;20469;-64
2022/10/04 07:46:42;;;;;;;4.70;2.65;;;16.00;99.90;;;;;;5055205;28;20045;-65
2022/10/04 07:49:19;;;;;;;4.65;2.10;;;16.10;99.90;;;;;;5055381;28;20045;-65
2022/10/04 07:52:14;;;;;;;2.80;1.70;;;16.20;99.90;;;;;;5055694;28;20045;-65
2022/10/04 07:54:58;;;;;;;5.47;2.10;;;16.30;99.90;;;;;;5054668;28;20526;-65
2022/10/04 07:57:43;;;;;;;4.93;1.70;;;16.30;99.90;;;;;;5055718;28;20477;-65
2022/10/04 08:00:20;;;;;;;5.88;2.15;;;16.30;99.90;;;;;;5040247;28;20048;-66
2022/10/04 08:02:56;;;;;;;7.60;2.42;;;16.40;99.90;;;;;;5038538;28;20041;-66
2022/10/04 08:05:32;;;;;;;7.72;2.17;;;16.50;99.90;;;;;;5054557;28;20496;-65
2022/10/04 08:08:25;;;;;;;5.93;1.90;;;16.60;99.90;;;;;;5056272;28;20207;-65
2022/10/04 08:11:09;;;;;;;4.68;1.80;;;16.60;99.90;;;;;;5040574;28;20448;-66
2022/10/04 08:14:07;;;;;;;4.88;1.52;;;16.70;99.90;;;;;;5054699;28;20420;-67
2022/10/04 08:16:57;;;;;;;2.08;1.52;;;16.80;99.90;;;;;;5038314;28;20045;-67
2022/10/04 08:19:53;;;;;;;4.55;1.77;;;16.80;99.90;;;;;;5056048;28;20048;-67
2022/10/04 08:22:29;;;;;;;12.27;10.05;;;16.90;99.90;;;;;;5054924;28;20443;-65
2022/10/04 08:25:01;;;;;;;5.90;3.50;;;17.00;99.90;;;;;;5055377;28;20469;-71
2022/10/04 08:27:36;;;;;;;2.85;1.90;;;17.00;99.90;;;;;;5037893;28;20045;-65
2022/10/04 08:30:16;;;;;;;4.28;1.52;;;17.00;99.90;;;;;;5038354;28;20045;-65
2022/10/04 08:33:05;;;;;;;2.75;1.80;;;17.00;99.90;;;;;;5054192;28;20041;-64
2022/10/04 08:36:01;;;;;;;5.47;2.40;;;17.10;99.90;;;;;;5038454;28;20477;-64
2022/10/04 08:38:33;;;;;;;4.90;1.58;;;17.10;99.90;;;;;;5046966;28;20115;-65
2022/10/04 08:41:52;;;;;;;3.55;1.63;;;17.10;99.90;;;;;;5055402;28;20048;-64
2022/10/04 08:44:26;;;;;;;;;;;17.10;99.90;;;;;;5031586;28;20091;-65
2022/10/04 08:47:08;;;;;;;4.43;1.65;;;17.00;99.90;;;;;;5053934;28;19916;-65
2022/10/04 08:49:37;;;;;;;3.22;1.95;;;17.00;99.90;;;;;;5055899;28;20048;-65
2022/10/04 08:52:38;;;;;;;3.70;1.63;;;17.00;99.90;;;;;;5054819;28;20064;-65
2022/10/04 08:55:30;;;;;;;3.25;1.38;;;17.00;99.90;;;;;;5037034;28;20048;-65
2022/10/04 08:58:34;;;;;;;3.92;1.60;;;17.00;99.90;;;;;;5053732;28;20049;-64
2022/10/04 09:01:35;;;;;;;2.47;1.40;;;16.90;99.90;;;;;;5054669;28;20071;-64
2022/10/04 09:04:31;;;;;;;3.28;1.27;;;16.90;99.90;;;;;;5053510;28;20163;-64
2022/10/04 09:07:49;;;;;;;3.03;1.42;;;16.90;99.90;;;;;;5054383;28;20411;-65
2022/10/04 09:10:28;;;;;;;4.10;1.30;;;16.90;99.90;;;;;;5042670;28;20052;-64
2022/10/04 09:13:11;;;;;;;4.88;1.92;;;16.80;99.90;;;;;;5054589;28;20041;-65
2022/10/04 09:15:51;;;;;;;2.50;1.65;;;16.80;99.90;;;;;;5054199;28;20049;-64
2022/10/04 09:18:44;;;;;;;3.50;1.35;;;16.80;99.90;;;;;;5037684;28;20041;-65
2022/10/04 09:21:17;;;;;;;3.15;1.45;;;16.80;99.90;;;;;;5052913;28;20045;-65
2022/10/04 09:24:08;;;;;;;2.70;1.50;;;16.70;99.90;;;;;;5036422;28;20041;-65
2022/10/04 09:26:39;;;;;;;2.95;1.60;;;16.70;99.90;;;;;;5052853;28;20099;-65
2022/10/04 09:29:36;;;;;;;4.10;1.60;;;16.70;99.90;;;;;;5052667;28;20052;-64
2022/10/04 09:32:03;;;;;;;2.33;1.20;;;16.70;99.90;;;;;;5051560;28;20041;-65
2022/10/04 09:34:50;;;;;;;3.00;1.52;;;16.80;99.90;;;;;;5054770;28;20048;-65
2022/10/04 09:37:29;;;;;;;4.00;1.70;;;16.90;99.90;;;;;;5053500;28;20041;-65
2022/10/04 09:40:43;;;;;;;4.07;1.88;;;16.90;99.90;;;;;;5052651;28;20102;-65
2022/10/04 09:43:53;;;;;;;5.13;1.60;;;16.90;99.90;;;;;;5038702;28;20527;-65
2022/10/04 09:46:50;;;;;;;4.35;1.50;;;17.00;99.90;;;;;;5039035;28;20461;-65
2022/10/04 09:49:40;;;;;;;2.40;1.17;;;17.20;99.90;;;;;;5052388;28;20041;-65
2022/10/04 09:52:11;;;;;;;2.38;1.30;;;17.30;99.90;;;;;;5053778;28;20310;-65
2022/10/04 09:54:57;;;;;;;2.85;1.30;;;17.40;99.90;;;;;;5053541;28;20052;-65
2022/10/04 09:57:44;;;;;;;3.65;1.20;;;17.50;99.90;;;;;;5053092;28;20518;-65
2022/10/04 10:00:23;;;;;;;7.90;1.58;;;17.60;99.90;;;;;;5052194;28;20113;-65
2022/10/04 10:03:00;;;;;;;2.00;1.40;;;17.80;99.90;;;;;;5052622;28;20504;-65
2022/10/04 10:06:09;;;;;;;5.22;3.30;;;18.00;99.90;;;;;;5052105;28;20069;-65
2022/10/04 10:09:01;;;;;;;10.02;1.75;;;18.10;99.90;;;;;;5050505;28;20091;-64
2022/10/04 10:14:52;;;;;;;2.95;1.40;;;18.20;99.90;;;;;;5052625;28;20037;-65
2022/10/04 10:17:38;;;;;;;2.00;1.20;;;18.20;99.90;;;;;;5052178;28;20526;-65
2022/10/04 10:20:33;;;;;;;3.88;1.30;;;18.10;99.90;;;;;;5051179;28;20112;-65
2022/10/04 10:23:25;;;;;;;2.55;1.30;;;18.00;99.90;;;;;;5053316;28;20052;-64
2022/10/04 10:26:32;;;;;;;3.20;1.50;;;17.90;99.90;;;;;;5053180;28;20051;-65
2022/10/04 10:29:50;;;;;;;2.45;1.25;;;17.90;99.90;;;;;;5052227;28;20124;-65
2022/10/04 10:32:28;;;;;;;3.40;0.90;;;18.00;99.90;;;;;;5041097;28;20106;-65
2022/10/04 10:35:23;;;;;;;1.88;0.85;;;18.10;99.90;;;;;;5053270;28;20772;-65
2022/10/04 10:38:06;;;;;;;1.48;0.70;;;18.20;99.90;;;;;;5052729;28;20118;-65
2022/10/04 10:41:03;;;;;;;1.38;0.77;;;18.40;99.90;;;;;;5052006;28;20477;-65
2022/10/04 10:43:54;;;;;;;2.72;0.70;;;18.50;99.90;;;;;;5053079;28;20056;-65
2022/10/04 10:47:00;;;;;;;1.55;0.77;;;18.50;99.90;;;;;;5051723;28;20472;-65
2022/10/04 10:49:51;;;;;;;2.17;0.75;;;18.40;99.90;;;;;;5052750;28;20041;-65
2022/10/04 10:52:54;;;;;;;1.13;0.70;;;18.40;99.90;;;;;;5053736;28;20040;-65
2022/10/04 10:55:51;;;;;;;3.47;0.80;;;18.40;99.90;;;;;;5051987;28;20041;-66
2022/10/04 10:58:33;;;;;;;8.68;7.28;;;18.50;99.90;;;;;;5028858;28;20049;-71
2022/10/04 11:01:28;;;;;;;3.25;1.10;;;18.60;99.90;;;;;;5053786;28;20044;-73
2022/10/04 11:04:11;;;;;;;3.38;0.90;;;18.70;99.90;;;;;;5036298;28;20049;-72
2022/10/04 11:06:57;;;;;;;2.25;0.85;;;18.90;99.90;;;;;;5052807;28;20425;-69
2022/10/04 11:09:31;;;;;;;2.80;0.90;;;19.10;99.90;;;;;;5052188;28;20170;-72
2022/10/04 11:12:16;;;;;;;1.30;0.85;;;19.20;99.90;;;;;;5034880;28;20083;-71
2022/10/04 11:14:55;;;;;;;3.03;1.10;;;19.20;99.90;;;;;;5052926;28;20045;-71
2022/10/04 11:18:00;;;;;;;2.00;0.75;;;19.20;99.90;;;;;;5051431;28;20052;-72
2022/10/04 11:20:30;;;;;;;2.85;1.05;;;19.00;99.90;;;;;;5053496;28;20369;-72
2022/10/04 11:23:07;;;;;;;3.30;1.20;;;18.90;99.90;;;;;;5052416;28;20052;-70
2022/10/04 11:26:01;;;;;;;2.17;1.00;;;18.90;99.90;;;;;;5051250;28;20063;-69
2022/10/04 11:28:45;;;;;;;3.47;1.02;;;18.80;99.90;;;;;;5052353;28;20374;-69
2022/10/04 11:31:32;;;;;;;3.20;0.80;;;18.70;99.90;;;;;;5052763;28;20045;-69
2022/10/04 11:34:38;;;;;;;3.58;1.13;;;18.50;99.90;;;;;;5055181;28;20520;-64
2022/10/04 11:37:25;;;;;;;2.75;1.17;;;18.40;99.90;;;;;;5055824;28;20127;-64
2022/10/04 11:40:23;;;;;;;3.70;1.10;;;18.30;99.90;;;;;;5055889;28;20507;-65
2022/10/04 11:43:23;;;;;;;2.20;1.27;;;18.30;99.90;;;;;;5055738;28;20098;-65
2022/10/04 11:46:03;;;;;;;2.05;0.95;;;18.30;99.90;;;;;;5055566;28;20095;-64
2022/10/04 11:49:07;;;;;;;1.88;1.20;;;18.50;99.90;;;;;;5055806;28;20124;-64
2022/10/04 11:51:49;;;;;;;1.67;1.10;;;18.60;99.90;;;;;;5051667;28;20045;-65
2022/10/04 11:54:20;;;;;;;3.13;1.10;;;18.70;99.90;;;;;;5054599;28;20056;-65
2022/10/04 11:57:07;;;;;;;52.38;46.70;;;18.80;99.90;;;;;;5055920;28;20052;-65
2022/10/04 11:59:40;;;;;;;7.70;6.25;;;19.00;99.90;;;;;;5056218;28;20044;-65
2022/10/04 12:02:52;;;;;;;5.80;2.95;;;19.20;99.90;;;;;;5055399;28;20052;-65
2022/10/04 12:05:27;;;;;;;3.65;1.60;;;19.30;99.90;;;;;;5054567;28;20056;-65
2022/10/04 12:08:00;;;;;;;6.57;1.33;;;19.30;99.90;;;;;;5054636;28;20434;-65
2022/10/04 12:10:37;;;;;;;2.97;1.25;;;19.40;99.90;;;;;;5055614;28;20102;-65
2022/10/04 12:13:25;;;;;;;5.03;1.90;;;19.30;99.90;;;;;;5055006;28;20056;-66
2022/10/04 12:16:18;;;;;;;3.38;1.40;;;19.30;99.90;;;;;;5055184;28;20546;-65
2022/10/04 12:19:01;;;;;;;2.60;1.20;;;19.30;99.90;;;;;;5055065;28;20049;-65
2022/10/04 12:21:39;;;;;;;3.17;1.27;;;19.10;99.90;;;;;;5038533;28;20052;-65
2022/10/04 12:24:27;;;;;;;2.10;1.35;;;19.10;99.90;;;;;;5054851;28;20045;-65
2022/10/04 12:27:00;;;;;;;4.55;2.08;;;19.00;99.90;;;;;;5054107;28;20477;-65
2022/10/04 12:29:36;;;;;;;5.28;1.60;;;18.90;99.90;;;;;;5038118;28;20049;-65
2022/10/04 12:32:26;;;;;;;4.95;1.83;;;18.90;99.90;;;;;;5054843;28;20453;-65
2022/10/04 12:35:12;;;;;;;4.40;1.65;;;18.90;99.90;;;;;;5037617;28;20041;-67
2022/10/04 12:38:05;;;;;;;2.88;1.65;;;18.90;99.90;;;;;;5054539;28;20350;-65
2022/10/04 12:40:53;;;;;;;3.65;1.67;;;18.80;99.90;;;;;;5054333;28;20053;-65
2022/10/04 12:43:55;;;;;;;3.38;1.35;;;18.70;99.90;;;;;;5054008;28;20443;-65
2022/10/04 12:46:44;;;;;;;172.32;150.32;;;18.70;99.90;;;;;;5055023;28;20053;-66
2022/10/04 12:49:14;;;;;;;14.68;9.82;;;18.50;99.90;;;;;;5054387;28;20052;-67
2022/10/04 12:51:45;;;;;;;5.93;3.65;;;18.50;99.90;;;;;;5054783;28;20114;-64
2022/10/04 12:54:33;;;;;;;4.78;2.10;;;18.40;99.90;;;;;;5053287;28;20110;-63
2022/10/04 12:57:27;;;;;;;3.65;1.40;;;18.30;99.90;;;;;;5053279;28;20045;-62
2022/10/04 13:00:03;;;;;;;4.05;1.40;;;18.20;99.90;;;;;;5055484;28;20181;-64
2022/10/04 13:03:08;;;;;;;7.28;1.95;;;18.20;99.90;;;;;;5053405;28;20095;-63
2022/10/04 13:05:46;;;;;;;3.45;1.20;;;18.30;99.90;;;;;;5053538;28;20591;-63
2022/10/04 13:08:17;;;;;;;4.43;1.10;;;18.30;99.90;;;;;;5053020;28;20045;-63
2022/10/04 13:10:59;;;;;;;4.07;1.52;;;18.30;99.90;;;;;;5054989;28;20041;-63
2022/10/04 13:13:30;;;;;;;5.80;1.58;;;18.30;99.90;;;;;;5054847;28;20416;-63
2022/10/04 13:16:26;;;;;;;3.97;1.63;;;18.30;99.90;;;;;;5037594;28;20049;-65
2022/10/04 13:19:49;;;;;;;4.72;1.10;;;18.20;99.90;;;;;;5053571;28;20427;-64
2022/10/04 13:22:29;;;;;;;1.75;0.88;;;18.10;99.90;;;;;;5054222;28;20041;-64
2022/10/04 13:25:28;;;;;;;6.32;1.45;;;18.10;99.90;;;;;;5054847;28;20080;-65
2022/10/04 13:28:04;;;;;;;6.00;1.80;;;18.10;99.90;;;;;;5053802;28;20041;-65
2022/10/04 13:30:59;;;;;;;3.47;1.75;;;18.20;99.90;;;;;;5052551;28;20044;-64
2022/10/04 13:33:38;;;;;;;4.53;1.15;;;18.40;99.90;;;;;;5050227;28;20044;-64
2022/10/04 13:36:10;;;;;;;;;;;18.60;99.90;;;;;;5054055;28;20041;-65
2022/10/04 13:39:08;;;;;;;5.32;1.17;;;18.70;99.90;;;;;;5085847;28;20352;-65
2022/10/04 13:42:05;;;;;;;3.33;1.15;;;18.80;99.90;;;;;;5052449;28;20044;-65
2022/10/04 13:44:53;;;;;;;2.65;1.30;;;18.80;99.90;;;;;;5049698;28;20045;-65
2022/10/04 13:47:51;;;;;;;2.78;1.35;;;18.80;99.90;;;;;;5053471;28;20493;-66
2022/10/04 13:50:30;;;;;;;7.57;4.50;;;18.80;99.90;;;;;;5052249;28;20114;-64
2022/10/04 13:56:38;;;;;;;3.22;1.50;;;18.60;99.90;;;;;;5053433;28;20041;-64
2022/10/04 13:59:08;;;;;;;5.97;1.63;;;18.50;99.90;;;;;;5053670;28;20056;-67
2022/10/04 14:01:53;;;;;;;6.95;2.50;;;18.60;99.90;;;;;;5052415;28;20041;-65
2022/10/04 14:04:27;;;;;;;6.97;1.95;;;18.60;99.90;;;;;;5053258;28;20087;-69
2022/10/04 14:07:24;;;;;;;9.63;2.53;;;18.70;99.90;;;;;;5036756;28;20052;-67
2022/10/04 14:09:58;;;;;;;4.63;1.70;;;18.80;99.90;;;;;;5053012;28;20049;-68